Strona główna
METAR-TAF:

METAR-TAF

Lotnisko :

Brześć, Białoruś

Port lotniczy Brześć

Szerokość geograficzna: 52-06-30N, Długość geograficzna: 023-53-48E, wysokość: 143 m

Aktualna obserwacja pogody

Raport powstał 14 godziny i 31 minut temu, godzina 11:00 UTC
Wiatr 14 kt od wschodnio-północny wschód w porywach dochodzący do 19 kt
Temperatura -8°C
Wilgotność 73%
Ciśnienie 1022 hPa
Widzialność 10 km lub więcej
Przerywane chmury na wysokości 3500 ft
Mało chmury na wysokości 20000 ft

METAR: UMBB 241100Z 06007G10MPS 9999 BKN035 FEW200 M08/M12 Q1022 NOSIG

czas: 04:31 (01:31 UTC)

Prognoza

Prognoza ważna od 24 godzina 18 UTC do 25 godzina 03 UTC
Wiatr 10 kt od północno-północny wschód w porywach dochodzący do 19 kt
Widzialność: 5000 m
Przerywane chmury na wysokości 1000 ft
słaby śnieg, zamglenie
Przejściowo
od 24 godzina 18 UTC do 25 godzina 02 UTC
Widzialność: 2100 m
Przerywane chmury na wysokości 500 ft
słaby śnieg, zamglenie

TAF: UMBB 2418/2503 03005G10MPS 5000 -SN BR BKN010 TEMPO 2418/2502 2100 -SN BR BKN005

Obserwacja i prognoza pogody dla ponad 4000 lotnisk (raport METAR i TAF).

Dostępne stacje oznaczono żółtymi i czerwonymi punktami na mapie.

Najedź kursorem aby zobaczyć nazwę stacji.

Kliknij aby zobaczyć obserwacje i prognozy pogody.

Aby zmienić mapę: kliknij na zielony przycisk z czarnym krzyżykiem, aby powiększyć; na zielony przycisk z myślnikiem, aby pomniejszyć; na zielone strzałki, aby przejść do map sąsiednich.


METAR-TAF: